sensor_id;sensor_type;location;lat;lon;timestamp;P1;durP1;ratioP1;P2;durP2;ratioP2
18336;SDS011;9294;51.106;7.028;2024-03-17T00:01:08;1.25;;;1.20;;
18336;SDS011;9294;51.106;7.028;2024-03-17T00:03:34;0.98;;;0.98;;
18336;SDS011;9294;51.106;7.028;2024-03-17T00:06:02;1.13;;;1.13;;
18336;SDS011;9294;51.106;7.028;2024-03-17T00:08:29;0.90;;;0.90;;
18336;SDS011;9294;51.106;7.028;2024-03-17T00:10:55;1.00;;;1.00;;
18336;SDS011;9294;51.106;7.028;2024-03-17T00:13:22;1.08;;;1.08;;
18336;SDS011;9294;51.106;7.028;2024-03-17T00:15:48;1.10;;;1.10;;
18336;SDS011;9294;51.106;7.028;2024-03-17T00:18:15;1.10;;;1.10;;
18336;SDS011;9294;51.106;7.028;2024-03-17T00:20:41;1.20;;;1.20;;
18336;SDS011;9294;51.106;7.028;2024-03-17T00:23:10;1.00;;;1.00;;
18336;SDS011;9294;51.106;7.028;2024-03-17T00:25:37;0.90;;;0.90;;
18336;SDS011;9294;51.106;7.028;2024-03-17T00:28:04;1.05;;;1.05;;
18336;SDS011;9294;51.106;7.028;2024-03-17T00:30:30;1.00;;;1.00;;
18336;SDS011;9294;51.106;7.028;2024-03-17T00:32:57;1.33;;;1.33;;
18336;SDS011;9294;51.106;7.028;2024-03-17T00:35:23;1.20;;;1.20;;
18336;SDS011;9294;51.106;7.028;2024-03-17T00:37:50;1.40;;;1.40;;
18336;SDS011;9294;51.106;7.028;2024-03-17T00:40:17;1.20;;;1.20;;
18336;SDS011;9294;51.106;7.028;2024-03-17T00:42:44;0.98;;;0.98;;
18336;SDS011;9294;51.106;7.028;2024-03-17T00:45:10;1.05;;;1.02;;
18336;SDS011;9294;51.106;7.028;2024-03-17T00:47:37;0.95;;;0.95;;
18336;SDS011;9294;51.106;7.028;2024-03-17T00:50:04;1.20;;;1.20;;
18336;SDS011;9294;51.106;7.028;2024-03-17T00:52:32;1.33;;;1.33;;
18336;SDS011;9294;51.106;7.028;2024-03-17T00:54:58;1.30;;;1.30;;
18336;SDS011;9294;51.106;7.028;2024-03-17T00:57:27;1.02;;;1.02;;
18336;SDS011;9294;51.106;7.028;2024-03-17T00:59:52;1.00;;;1.00;;
18336;SDS011;9294;51.106;7.028;2024-03-17T01:02:19;1.15;;;1.15;;
18336;SDS011;9294;51.106;7.028;2024-03-17T01:04:46;1.00;;;1.00;;
18336;SDS011;9294;51.106;7.028;2024-03-17T01:07:13;1.10;;;1.10;;
18336;SDS011;9294;51.106;7.028;2024-03-17T01:09:39;1.10;;;1.10;;
18336;SDS011;9294;51.106;7.028;2024-03-17T01:12:06;1.10;;;1.00;;
18336;SDS011;9294;51.106;7.028;2024-03-17T01:14:33;1.33;;;1.30;;
18336;SDS011;9294;51.106;7.028;2024-03-17T01:17:00;1.00;;;1.00;;
18336;SDS011;9294;51.106;7.028;2024-03-17T01:19:26;1.15;;;1.15;;
18336;SDS011;9294;51.106;7.028;2024-03-17T01:21:53;1.30;;;1.25;;
18336;SDS011;9294;51.106;7.028;2024-03-17T01:24:20;1.40;;;1.40;;
18336;SDS011;9294;51.106;7.028;2024-03-17T01:26:45;1.25;;;1.17;;
18336;SDS011;9294;51.106;7.028;2024-03-17T01:29:12;0.90;;;0.90;;
18336;SDS011;9294;51.106;7.028;2024-03-17T01:31:39;1.33;;;1.25;;
18336;SDS011;9294;51.106;7.028;2024-03-17T01:34:06;1.20;;;1.20;;
18336;SDS011;9294;51.106;7.028;2024-03-17T01:36:32;1.08;;;1.08;;
18336;SDS011;9294;51.106;7.028;2024-03-17T01:38:59;1.20;;;1.20;;
18336;SDS011;9294;51.106;7.028;2024-03-17T01:41:25;0.95;;;0.95;;
18336;SDS011;9294;51.106;7.028;2024-03-17T01:43:51;1.15;;;1.15;;
18336;SDS011;9294;51.106;7.028;2024-03-17T01:46:17;1.20;;;1.10;;
18336;SDS011;9294;51.106;7.028;2024-03-17T01:48:45;1.08;;;1.08;;
18336;SDS011;9294;51.106;7.028;2024-03-17T01:51:11;1.17;;;1.17;;
18336;SDS011;9294;51.106;7.028;2024-03-17T01:53:41;1.00;;;1.00;;
18336;SDS011;9294;51.106;7.028;2024-03-17T01:56:07;1.10;;;1.10;;
18336;SDS011;9294;51.106;7.028;2024-03-17T01:58:37;1.20;;;1.20;;
18336;SDS011;9294;51.106;7.028;2024-03-17T02:01:03;1.10;;;1.10;;
18336;SDS011;9294;51.106;7.028;2024-03-17T02:03:30;1.05;;;1.05;;
18336;SDS011;9294;51.106;7.028;2024-03-17T02:05:57;1.20;;;1.20;;
18336;SDS011;9294;51.106;7.028;2024-03-17T02:08:24;0.90;;;0.90;;
18336;SDS011;9294;51.106;7.028;2024-03-17T02:10:52;1.60;;;1.50;;
18336;SDS011;9294;51.106;7.028;2024-03-17T02:13:19;1.10;;;1.10;;
18336;SDS011;9294;51.106;7.028;2024-03-17T02:15:46;1.40;;;1.40;;
18336;SDS011;9294;51.106;7.028;2024-03-17T02:18:12;1.20;;;1.20;;
18336;SDS011;9294;51.106;7.028;2024-03-17T02:20:38;1.27;;;1.27;;
18336;SDS011;9294;51.106;7.028;2024-03-17T02:23:27;1.17;;;1.17;;
18336;SDS011;9294;51.106;7.028;2024-03-17T02:25:52;1.30;;;1.30;;
18336;SDS011;9294;51.106;7.028;2024-03-17T02:28:19;1.42;;;1.42;;
18336;SDS011;9294;51.106;7.028;2024-03-17T02:30:46;1.30;;;1.30;;
18336;SDS011;9294;51.106;7.028;2024-03-17T02:33:12;1.15;;;1.15;;
18336;SDS011;9294;51.106;7.028;2024-03-17T02:35:38;1.38;;;1.13;;
18336;SDS011;9294;51.106;7.028;2024-03-17T02:38:05;1.38;;;1.38;;
18336;SDS011;9294;51.106;7.028;2024-03-17T02:40:34;0.90;;;0.90;;
18336;SDS011;9294;51.106;7.028;2024-03-17T02:42:59;1.13;;;1.13;;
18336;SDS011;9294;51.106;7.028;2024-03-17T02:45:26;1.23;;;1.23;;
18336;SDS011;9294;51.106;7.028;2024-03-17T02:47:53;1.00;;;1.00;;
18336;SDS011;9294;51.106;7.028;2024-03-17T02:50:20;1.20;;;1.20;;
18336;SDS011;9294;51.106;7.028;2024-03-17T02:52:46;1.20;;;1.20;;
18336;SDS011;9294;51.106;7.028;2024-03-17T02:55:13;1.30;;;1.30;;
18336;SDS011;9294;51.106;7.028;2024-03-17T02:57:43;1.30;;;1.30;;
18336;SDS011;9294;51.106;7.028;2024-03-17T03:00:11;1.25;;;1.25;;
18336;SDS011;9294;51.106;7.028;2024-03-17T03:02:38;0.90;;;0.90;;
18336;SDS011;9294;51.106;7.028;2024-03-17T03:05:05;1.42;;;1.42;;
18336;SDS011;9294;51.106;7.028;2024-03-17T03:07:32;1.38;;;1.38;;
18336;SDS011;9294;51.106;7.028;2024-03-17T03:09:59;1.52;;;1.42;;
18336;SDS011;9294;51.106;7.028;2024-03-17T03:12:26;1.33;;;1.27;;
18336;SDS011;9294;51.106;7.028;2024-03-17T03:14:54;1.25;;;1.25;;
18336;SDS011;9294;51.106;7.028;2024-03-17T03:17:20;1.13;;;1.13;;
18336;SDS011;9294;51.106;7.028;2024-03-17T03:19:47;1.10;;;1.10;;
18336;SDS011;9294;51.106;7.028;2024-03-17T03:22:14;1.10;;;1.10;;
18336;SDS011;9294;51.106;7.028;2024-03-17T03:24:41;1.10;;;1.10;;
18336;SDS011;9294;51.106;7.028;2024-03-17T03:27:08;1.40;;;1.40;;
18336;SDS011;9294;51.106;7.028;2024-03-17T03:29:34;1.20;;;1.20;;
18336;SDS011;9294;51.106;7.028;2024-03-17T03:32:03;0.95;;;0.95;;
18336;SDS011;9294;51.106;7.028;2024-03-17T03:34:32;1.00;;;1.00;;
18336;SDS011;9294;51.106;7.028;2024-03-17T03:36:59;1.30;;;1.30;;
18336;SDS011;9294;51.106;7.028;2024-03-17T03:39:26;1.27;;;1.27;;
18336;SDS011;9294;51.106;7.028;2024-03-17T03:41:56;1.25;;;1.25;;
18336;SDS011;9294;51.106;7.028;2024-03-17T03:44:23;1.20;;;1.20;;
18336;SDS011;9294;51.106;7.028;2024-03-17T03:46:50;1.33;;;1.33;;
18336;SDS011;9294;51.106;7.028;2024-03-17T03:49:19;1.23;;;1.23;;
18336;SDS011;9294;51.106;7.028;2024-03-17T03:51:46;1.15;;;1.15;;
18336;SDS011;9294;51.106;7.028;2024-03-17T03:54:12;1.27;;;1.27;;
18336;SDS011;9294;51.106;7.028;2024-03-17T03:56:39;1.10;;;1.10;;
18336;SDS011;9294;51.106;7.028;2024-03-17T03:59:06;1.13;;;1.13;;
18336;SDS011;9294;51.106;7.028;2024-03-17T04:01:32;1.35;;;1.35;;
18336;SDS011;9294;51.106;7.028;2024-03-17T04:03:59;1.20;;;1.20;;
18336;SDS011;9294;51.106;7.028;2024-03-17T04:06:27;1.30;;;1.30;;
18336;SDS011;9294;51.106;7.028;2024-03-17T04:08:54;1.27;;;1.27;;
18336;SDS011;9294;51.106;7.028;2024-03-17T04:11:21;1.17;;;1.17;;
18336;SDS011;9294;51.106;7.028;2024-03-17T04:13:47;1.02;;;1.02;;
18336;SDS011;9294;51.106;7.028;2024-03-17T04:16:14;1.23;;;1.23;;
18336;SDS011;9294;51.106;7.028;2024-03-17T04:18:41;1.38;;;1.38;;
18336;SDS011;9294;51.106;7.028;2024-03-17T04:21:08;1.30;;;1.23;;
18336;SDS011;9294;51.106;7.028;2024-03-17T04:23:36;1.38;;;1.38;;
18336;SDS011;9294;51.106;7.028;2024-03-17T04:26:03;1.23;;;1.23;;
18336;SDS011;9294;51.106;7.028;2024-03-17T04:28:32;1.30;;;1.30;;
18336;SDS011;9294;51.106;7.028;2024-03-17T04:31:03;1.17;;;1.17;;
18336;SDS011;9294;51.106;7.028;2024-03-17T04:33:30;1.30;;;1.30;;
18336;SDS011;9294;51.106;7.028;2024-03-17T04:35:58;1.00;;;1.00;;
18336;SDS011;9294;51.106;7.028;2024-03-17T04:38:24;1.30;;;1.30;;
18336;SDS011;9294;51.106;7.028;2024-03-17T04:40:52;1.67;;;1.63;;
18336;SDS011;9294;51.106;7.028;2024-03-17T04:43:28;1.17;;;1.17;;
18336;SDS011;9294;51.106;7.028;2024-03-17T04:45:59;1.30;;;1.30;;
18336;SDS011;9294;51.106;7.028;2024-03-17T04:48:28;1.48;;;1.48;;
18336;SDS011;9294;51.106;7.028;2024-03-17T04:50:55;1.20;;;1.20;;
18336;SDS011;9294;51.106;7.028;2024-03-17T04:53:22;1.50;;;1.50;;
18336;SDS011;9294;51.106;7.028;2024-03-17T04:55:58;1.30;;;1.30;;
18336;SDS011;9294;51.106;7.028;2024-03-17T04:58:25;1.20;;;1.20;;
18336;SDS011;9294;51.106;7.028;2024-03-17T05:00:52;1.20;;;1.20;;
18336;SDS011;9294;51.106;7.028;2024-03-17T05:03:19;1.33;;;1.23;;
18336;SDS011;9294;51.106;7.028;2024-03-17T05:05:45;1.20;;;1.20;;
18336;SDS011;9294;51.106;7.028;2024-03-17T05:08:12;1.20;;;1.20;;
18336;SDS011;9294;51.106;7.028;2024-03-17T05:10:39;1.20;;;1.20;;
18336;SDS011;9294;51.106;7.028;2024-03-17T05:13:07;1.25;;;1.25;;
18336;SDS011;9294;51.106;7.028;2024-03-17T05:15:36;1.00;;;1.00;;
18336;SDS011;9294;51.106;7.028;2024-03-17T05:18:03;1.35;;;1.35;;
18336;SDS011;9294;51.106;7.028;2024-03-17T05:20:30;1.10;;;1.10;;
18336;SDS011;9294;51.106;7.028;2024-03-17T05:22:57;1.35;;;1.35;;
18336;SDS011;9294;51.106;7.028;2024-03-17T05:25:24;1.20;;;1.20;;
18336;SDS011;9294;51.106;7.028;2024-03-17T05:27:50;1.27;;;1.27;;
18336;SDS011;9294;51.106;7.028;2024-03-17T05:30:18;1.30;;;1.30;;
18336;SDS011;9294;51.106;7.028;2024-03-17T05:32:45;1.50;;;1.50;;
18336;SDS011;9294;51.106;7.028;2024-03-17T05:35:12;1.23;;;1.23;;
18336;SDS011;9294;51.106;7.028;2024-03-17T05:37:39;1.30;;;1.30;;
18336;SDS011;9294;51.106;7.028;2024-03-17T05:40:06;1.38;;;1.38;;
18336;SDS011;9294;51.106;7.028;2024-03-17T05:42:37;1.23;;;1.20;;
18336;SDS011;9294;51.106;7.028;2024-03-17T05:45:04;1.58;;;1.58;;
18336;SDS011;9294;51.106;7.028;2024-03-17T05:47:32;1.33;;;1.33;;
18336;SDS011;9294;51.106;7.028;2024-03-17T05:49:59;1.30;;;1.30;;
18336;SDS011;9294;51.106;7.028;2024-03-17T05:52:26;1.40;;;1.40;;
18336;SDS011;9294;51.106;7.028;2024-03-17T05:54:52;1.45;;;1.42;;
18336;SDS011;9294;51.106;7.028;2024-03-17T05:57:20;1.30;;;1.30;;
18336;SDS011;9294;51.106;7.028;2024-03-17T05:59:47;1.25;;;1.25;;
18336;SDS011;9294;51.106;7.028;2024-03-17T06:02:14;1.52;;;1.45;;
18336;SDS011;9294;51.106;7.028;2024-03-17T06:04:43;1.30;;;1.30;;
18336;SDS011;9294;51.106;7.028;2024-03-17T06:07:09;1.52;;;1.52;;
18336;SDS011;9294;51.106;7.028;2024-03-17T06:09:36;1.23;;;1.23;;
18336;SDS011;9294;51.106;7.028;2024-03-17T06:12:03;1.63;;;1.63;;
18336;SDS011;9294;51.106;7.028;2024-03-17T06:14:31;1.55;;;1.50;;
18336;SDS011;9294;51.106;7.028;2024-03-17T06:16:59;1.25;;;1.25;;
18336;SDS011;9294;51.106;7.028;2024-03-17T06:19:25;1.27;;;1.27;;
18336;SDS011;9294;51.106;7.028;2024-03-17T06:21:53;1.48;;;1.48;;
18336;SDS011;9294;51.106;7.028;2024-03-17T06:24:21;1.52;;;1.52;;
18336;SDS011;9294;51.106;7.028;2024-03-17T06:26:50;1.20;;;1.20;;
18336;SDS011;9294;51.106;7.028;2024-03-17T06:29:16;1.23;;;1.23;;
18336;SDS011;9294;51.106;7.028;2024-03-17T06:31:45;1.30;;;1.30;;
18336;SDS011;9294;51.106;7.028;2024-03-17T06:34:12;1.27;;;1.27;;
18336;SDS011;9294;51.106;7.028;2024-03-17T06:36:40;1.27;;;1.27;;
18336;SDS011;9294;51.106;7.028;2024-03-17T06:39:09;1.40;;;1.40;;
18336;SDS011;9294;51.106;7.028;2024-03-17T06:41:40;1.02;;;1.02;;
18336;SDS011;9294;51.106;7.028;2024-03-17T06:44:07;1.13;;;1.10;;
18336;SDS011;9294;51.106;7.028;2024-03-17T06:46:34;1.23;;;1.23;;
18336;SDS011;9294;51.106;7.028;2024-03-17T06:49:01;1.67;;;1.67;;
18336;SDS011;9294;51.106;7.028;2024-03-17T06:51:28;1.10;;;1.10;;
18336;SDS011;9294;51.106;7.028;2024-03-17T06:53:54;1.73;;;1.70;;
18336;SDS011;9294;51.106;7.028;2024-03-17T06:56:22;1.20;;;1.20;;
18336;SDS011;9294;51.106;7.028;2024-03-17T06:58:50;1.33;;;1.30;;
18336;SDS011;9294;51.106;7.028;2024-03-17T07:01:18;1.10;;;1.10;;
18336;SDS011;9294;51.106;7.028;2024-03-17T07:03:45;1.58;;;1.48;;
18336;SDS011;9294;51.106;7.028;2024-03-17T07:06:12;1.15;;;1.15;;
18336;SDS011;9294;51.106;7.028;2024-03-17T07:08:39;1.40;;;1.40;;
18336;SDS011;9294;51.106;7.028;2024-03-17T07:11:06;1.30;;;1.30;;
18336;SDS011;9294;51.106;7.028;2024-03-17T07:13:34;1.30;;;1.30;;
18336;SDS011;9294;51.106;7.028;2024-03-17T07:16:02;1.27;;;1.27;;
18336;SDS011;9294;51.106;7.028;2024-03-17T07:18:31;1.35;;;1.35;;
18336;SDS011;9294;51.106;7.028;2024-03-17T07:20:58;1.20;;;1.20;;
18336;SDS011;9294;51.106;7.028;2024-03-17T07:23:25;1.00;;;1.00;;
18336;SDS011;9294;51.106;7.028;2024-03-17T07:25:52;1.27;;;1.23;;
18336;SDS011;9294;51.106;7.028;2024-03-17T07:28:20;1.48;;;1.40;;
18336;SDS011;9294;51.106;7.028;2024-03-17T07:30:48;1.17;;;1.17;;
18336;SDS011;9294;51.106;7.028;2024-03-17T07:33:16;1.10;;;1.10;;
18336;SDS011;9294;51.106;7.028;2024-03-17T07:35:49;1.08;;;1.08;;
18336;SDS011;9294;51.106;7.028;2024-03-17T07:38:16;1.13;;;1.13;;
18336;SDS011;9294;51.106;7.028;2024-03-17T07:40:43;1.08;;;1.08;;
18336;SDS011;9294;51.106;7.028;2024-03-17T07:43:11;1.15;;;1.15;;
18336;SDS011;9294;51.106;7.028;2024-03-17T07:45:38;1.25;;;1.25;;
18336;SDS011;9294;51.106;7.028;2024-03-17T07:48:06;1.33;;;1.33;;
18336;SDS011;9294;51.106;7.028;2024-03-17T07:50:33;1.20;;;1.20;;
18336;SDS011;9294;51.106;7.028;2024-03-17T07:52:59;1.40;;;1.40;;
18336;SDS011;9294;51.106;7.028;2024-03-17T07:55:27;1.42;;;1.42;;
18336;SDS011;9294;51.106;7.028;2024-03-17T07:57:55;1.38;;;1.38;;
18336;SDS011;9294;51.106;7.028;2024-03-17T08:00:22;1.20;;;1.20;;
18336;SDS011;9294;51.106;7.028;2024-03-17T08:02:49;1.20;;;1.20;;
18336;SDS011;9294;51.106;7.028;2024-03-17T08:05:17;1.40;;;1.40;;
18336;SDS011;9294;51.106;7.028;2024-03-17T08:07:43;1.30;;;1.30;;
18336;SDS011;9294;51.106;7.028;2024-03-17T08:10:10;1.33;;;1.33;;
18336;SDS011;9294;51.106;7.028;2024-03-17T08:12:37;0.90;;;0.90;;
18336;SDS011;9294;51.106;7.028;2024-03-17T08:15:04;1.45;;;1.35;;
18336;SDS011;9294;51.106;7.028;2024-03-17T08:17:31;1.10;;;1.10;;
18336;SDS011;9294;51.106;7.028;2024-03-17T08:19:57;1.27;;;1.27;;
18336;SDS011;9294;51.106;7.028;2024-03-17T08:22:25;1.23;;;1.23;;
18336;SDS011;9294;51.106;7.028;2024-03-17T08:24:52;1.20;;;1.20;;
18336;SDS011;9294;51.106;7.028;2024-03-17T08:27:19;0.90;;;0.90;;
18336;SDS011;9294;51.106;7.028;2024-03-17T08:29:45;1.30;;;1.30;;
18336;SDS011;9294;51.106;7.028;2024-03-17T08:32:12;1.30;;;1.30;;
18336;SDS011;9294;51.106;7.028;2024-03-17T08:34:39;1.17;;;1.17;;
18336;SDS011;9294;51.106;7.028;2024-03-17T08:37:06;1.30;;;1.30;;
18336;SDS011;9294;51.106;7.028;2024-03-17T08:39:35;1.25;;;1.25;;
18336;SDS011;9294;51.106;7.028;2024-03-17T08:42:02;1.15;;;1.15;;
18336;SDS011;9294;51.106;7.028;2024-03-17T08:44:28;1.10;;;1.10;;
18336;SDS011;9294;51.106;7.028;2024-03-17T08:46:55;1.13;;;1.10;;
18336;SDS011;9294;51.106;7.028;2024-03-17T08:49:22;1.10;;;1.10;;
18336;SDS011;9294;51.106;7.028;2024-03-17T08:51:50;1.20;;;1.20;;
18336;SDS011;9294;51.106;7.028;2024-03-17T08:54:16;1.20;;;1.20;;
18336;SDS011;9294;51.106;7.028;2024-03-17T08:56:44;1.17;;;1.17;;
18336;SDS011;9294;51.106;7.028;2024-03-17T08:59:11;1.38;;;1.38;;
18336;SDS011;9294;51.106;7.028;2024-03-17T09:01:38;1.00;;;1.00;;
18336;SDS011;9294;51.106;7.028;2024-03-17T09:04:05;1.45;;;1.35;;
18336;SDS011;9294;51.106;7.028;2024-03-17T09:06:31;1.52;;;1.42;;
18336;SDS011;9294;51.106;7.028;2024-03-17T09:08:59;0.95;;;0.93;;
18336;SDS011;9294;51.106;7.028;2024-03-17T09:11:28;1.00;;;1.00;;
18336;SDS011;9294;51.106;7.028;2024-03-17T09:13:56;1.30;;;1.30;;
18336;SDS011;9294;51.106;7.028;2024-03-17T09:16:23;1.20;;;1.20;;
18336;SDS011;9294;51.106;7.028;2024-03-17T09:18:51;1.40;;;1.40;;
18336;SDS011;9294;51.106;7.028;2024-03-17T09:21:17;1.25;;;1.20;;
18336;SDS011;9294;51.106;7.028;2024-03-17T09:23:44;1.00;;;1.00;;
18336;SDS011;9294;51.106;7.028;2024-03-17T09:26:11;1.23;;;1.13;;
18336;SDS011;9294;51.106;7.028;2024-03-17T09:28:39;1.13;;;1.13;;
18336;SDS011;9294;51.106;7.028;2024-03-17T09:31:07;1.50;;;1.50;;
18336;SDS011;9294;51.106;7.028;2024-03-17T09:33:34;1.20;;;1.20;;
18336;SDS011;9294;51.106;7.028;2024-03-17T09:36:02;1.10;;;1.10;;
18336;SDS011;9294;51.106;7.028;2024-03-17T09:38:31;1.15;;;1.15;;
18336;SDS011;9294;51.106;7.028;2024-03-17T09:40:59;1.30;;;1.30;;
18336;SDS011;9294;51.106;7.028;2024-03-17T09:43:26;1.13;;;1.13;;
18336;SDS011;9294;51.106;7.028;2024-03-17T09:45:53;1.10;;;1.10;;
18336;SDS011;9294;51.106;7.028;2024-03-17T09:48:24;1.30;;;1.30;;
18336;SDS011;9294;51.106;7.028;2024-03-17T09:50:53;1.17;;;1.17;;
18336;SDS011;9294;51.106;7.028;2024-03-17T09:53:22;1.40;;;1.40;;
18336;SDS011;9294;51.106;7.028;2024-03-17T09:55:51;1.08;;;1.08;;
18336;SDS011;9294;51.106;7.028;2024-03-17T09:58:18;0.95;;;0.95;;
18336;SDS011;9294;51.106;7.028;2024-03-17T10:00:45;1.30;;;1.30;;
18336;SDS011;9294;51.106;7.028;2024-03-17T10:03:12;0.90;;;0.90;;
18336;SDS011;9294;51.106;7.028;2024-03-17T10:06:00;1.00;;;1.00;;
18336;SDS011;9294;51.106;7.028;2024-03-17T10:08:27;4.45;;;1.80;;
18336;SDS011;9294;51.106;7.028;2024-03-17T10:10:53;3.55;;;1.45;;
18336;SDS011;9294;51.106;7.028;2024-03-17T10:13:20;3.10;;;1.30;;
18336;SDS011;9294;51.106;7.028;2024-03-17T10:15:50;2.60;;;1.00;;
18336;SDS011;9294;51.106;7.028;2024-03-17T10:18:20;1.40;;;1.30;;
18336;SDS011;9294;51.106;7.028;2024-03-17T10:20:47;1.77;;;1.00;;
18336;SDS011;9294;51.106;7.028;2024-03-17T10:23:18;1.08;;;0.90;;
18336;SDS011;9294;51.106;7.028;2024-03-17T10:25:45;4.57;;;1.40;;
18336;SDS011;9294;51.106;7.028;2024-03-17T10:28:12;1.08;;;1.08;;
18336;SDS011;9294;51.106;7.028;2024-03-17T10:30:40;1.20;;;1.20;;
18336;SDS011;9294;51.106;7.028;2024-03-17T10:33:20;1.00;;;1.00;;
18336;SDS011;9294;51.106;7.028;2024-03-17T10:35:50;1.75;;;1.00;;
18336;SDS011;9294;51.106;7.028;2024-03-17T10:38:25;1.10;;;1.10;;
18336;SDS011;9294;51.106;7.028;2024-03-17T10:40:52;1.75;;;1.25;;
18336;SDS011;9294;51.106;7.028;2024-03-17T10:43:19;2.78;;;1.30;;
18336;SDS011;9294;51.106;7.028;2024-03-17T10:45:49;1.15;;;1.15;;
18336;SDS011;9294;51.106;7.028;2024-03-17T10:48:19;4.50;;;1.20;;
18336;SDS011;9294;51.106;7.028;2024-03-17T10:50:47;1.15;;;1.15;;
18336;SDS011;9294;51.106;7.028;2024-03-17T10:53:17;0.88;;;0.88;;
18336;SDS011;9294;51.106;7.028;2024-03-17T10:55:55;3.78;;;1.27;;
18336;SDS011;9294;51.106;7.028;2024-03-17T10:58:34;5.00;;;3.08;;
18336;SDS011;9294;51.106;7.028;2024-03-17T11:01:02;8.63;;;6.25;;
18336;SDS011;9294;51.106;7.028;2024-03-17T11:03:31;15.10;;;9.65;;
18336;SDS011;9294;51.106;7.028;2024-03-17T11:05:58;15.93;;;10.15;;
18336;SDS011;9294;51.106;7.028;2024-03-17T11:08:28;16.60;;;12.02;;
18336;SDS011;9294;51.106;7.028;2024-03-17T11:10:58;15.05;;;11.88;;
18336;SDS011;9294;51.106;7.028;2024-03-17T11:13:25;23.38;;;12.32;;
18336;SDS011;9294;51.106;7.028;2024-03-17T11:15:53;16.83;;;13.52;;
18336;SDS011;9294;51.106;7.028;2024-03-17T11:18:31;21.40;;;15.55;;
18336;SDS011;9294;51.106;7.028;2024-03-17T11:20:59;33.30;;;22.95;;
18336;SDS011;9294;51.106;7.028;2024-03-17T11:23:33;32.58;;;21.42;;
18336;SDS011;9294;51.106;7.028;2024-03-17T11:26:03;31.55;;;21.20;;
18336;SDS011;9294;51.106;7.028;2024-03-17T11:28:46;26.10;;;18.63;;
18336;SDS011;9294;51.106;7.028;2024-03-17T11:31:33;24.83;;;17.30;;
18336;SDS011;9294;51.106;7.028;2024-03-17T11:37:04;22.92;;;15.48;;
18336;SDS011;9294;51.106;7.028;2024-03-17T11:39:48;23.98;;;14.68;;
18336;SDS011;9294;51.106;7.028;2024-03-17T11:42:22;21.35;;;15.43;;
18336;SDS011;9294;51.106;7.028;2024-03-17T11:44:56;22.60;;;14.60;;
18336;SDS011;9294;51.106;7.028;2024-03-17T11:47:23;20.23;;;13.13;;
18336;SDS011;9294;51.106;7.028;2024-03-17T11:49:59;17.42;;;12.77;;
18336;SDS011;9294;51.106;7.028;2024-03-17T11:52:28;20.55;;;11.88;;
18336;SDS011;9294;51.106;7.028;2024-03-17T11:54:54;17.52;;;11.25;;
18336;SDS011;9294;51.106;7.028;2024-03-17T11:57:22;17.30;;;11.55;;
18336;SDS011;9294;51.106;7.028;2024-03-17T11:59:50;16.48;;;10.57;;
18336;SDS011;9294;51.106;7.028;2024-03-17T12:02:18;13.02;;;9.32;;
18336;SDS011;9294;51.106;7.028;2024-03-17T12:04:47;13.48;;;9.30;;
18336;SDS011;9294;51.106;7.028;2024-03-17T12:07:13;13.60;;;9.25;;
18336;SDS011;9294;51.106;7.028;2024-03-17T12:09:41;13.60;;;9.45;;
18336;SDS011;9294;51.106;7.028;2024-03-17T12:12:08;16.55;;;10.55;;
18336;SDS011;9294;51.106;7.028;2024-03-17T12:14:39;12.85;;;8.68;;
18336;SDS011;9294;51.106;7.028;2024-03-17T12:17:05;12.27;;;8.32;;
18336;SDS011;9294;51.106;7.028;2024-03-17T12:19:33;9.50;;;7.65;;
18336;SDS011;9294;51.106;7.028;2024-03-17T12:22:00;12.35;;;7.35;;
18336;SDS011;9294;51.106;7.028;2024-03-17T12:24:28;11.90;;;7.45;;
18336;SDS011;9294;51.106;7.028;2024-03-17T12:26:56;9.80;;;7.25;;
18336;SDS011;9294;51.106;7.028;2024-03-17T12:29:25;9.13;;;7.25;;
18336;SDS011;9294;51.106;7.028;2024-03-17T12:31:54;8.40;;;7.05;;
18336;SDS011;9294;51.106;7.028;2024-03-17T12:34:22;12.75;;;7.20;;
18336;SDS011;9294;51.106;7.028;2024-03-17T12:36:51;11.15;;;6.88;;
18336;SDS011;9294;51.106;7.028;2024-03-17T12:39:19;8.98;;;6.18;;
18336;SDS011;9294;51.106;7.028;2024-03-17T12:42:00;12.68;;;6.07;;
18336;SDS011;9294;51.106;7.028;2024-03-17T12:44:31;8.73;;;5.68;;
18336;SDS011;9294;51.106;7.028;2024-03-17T12:47:00;8.15;;;5.85;;
18336;SDS011;9294;51.106;7.028;2024-03-17T12:49:28;9.07;;;6.72;;
18336;SDS011;9294;51.106;7.028;2024-03-17T12:51:54;9.43;;;5.95;;
18336;SDS011;9294;51.106;7.028;2024-03-17T12:54:21;13.48;;;6.63;;
18336;SDS011;9294;51.106;7.028;2024-03-17T12:56:49;18.83;;;6.43;;
18336;SDS011;9294;51.106;7.028;2024-03-17T12:59:38;7.15;;;5.78;;
18336;SDS011;9294;51.106;7.028;2024-03-17T13:02:24;11.32;;;5.00;;
18336;SDS011;9294;51.106;7.028;2024-03-17T13:05:06;10.00;;;5.85;;
18336;SDS011;9294;51.106;7.028;2024-03-17T13:07:34;7.25;;;5.38;;
18336;SDS011;9294;51.106;7.028;2024-03-17T13:10:01;9.35;;;5.80;;
18336;SDS011;9294;51.106;7.028;2024-03-17T13:12:29;8.45;;;5.10;;
18336;SDS011;9294;51.106;7.028;2024-03-17T13:14:55;9.10;;;4.93;;
18336;SDS011;9294;51.106;7.028;2024-03-17T13:17:22;6.97;;;4.88;;
18336;SDS011;9294;51.106;7.028;2024-03-17T13:19:50;10.50;;;5.30;;
18336;SDS011;9294;51.106;7.028;2024-03-17T13:22:18;8.40;;;5.10;;
18336;SDS011;9294;51.106;7.028;2024-03-17T13:24:45;8.43;;;5.43;;
18336;SDS011;9294;51.106;7.028;2024-03-17T13:27:12;7.78;;;5.28;;
18336;SDS011;9294;51.106;7.028;2024-03-17T13:29:39;8.77;;;4.40;;
18336;SDS011;9294;51.106;7.028;2024-03-17T13:32:09;6.82;;;4.43;;
18336;SDS011;9294;51.106;7.028;2024-03-17T13:34:36;12.73;;;4.43;;
18336;SDS011;9294;51.106;7.028;2024-03-17T13:37:04;9.13;;;4.65;;
18336;SDS011;9294;51.106;7.028;2024-03-17T13:39:32;4.50;;;3.95;;
18336;SDS011;9294;51.106;7.028;2024-03-17T13:42:00;22.52;;;5.15;;
18336;SDS011;9294;51.106;7.028;2024-03-17T13:44:28;6.90;;;3.80;;
18336;SDS011;9294;51.106;7.028;2024-03-17T13:46:56;6.75;;;3.95;;
18336;SDS011;9294;51.106;7.028;2024-03-17T13:49:23;8.15;;;3.83;;
18336;SDS011;9294;51.106;7.028;2024-03-17T13:51:50;6.75;;;4.18;;
18336;SDS011;9294;51.106;7.028;2024-03-17T13:54:18;20.83;;;5.50;;
18336;SDS011;9294;51.106;7.028;2024-03-17T13:56:46;5.70;;;3.95;;
18336;SDS011;9294;51.106;7.028;2024-03-17T13:59:13;11.07;;;3.95;;
18336;SDS011;9294;51.106;7.028;2024-03-17T14:01:40;13.63;;;4.82;;
18336;SDS011;9294;51.106;7.028;2024-03-17T14:04:09;9.75;;;3.90;;
18336;SDS011;9294;51.106;7.028;2024-03-17T14:06:39;5.60;;;3.72;;
18336;SDS011;9294;51.106;7.028;2024-03-17T14:09:06;5.90;;;3.83;;
18336;SDS011;9294;51.106;7.028;2024-03-17T14:11:35;7.15;;;4.30;;
18336;SDS011;9294;51.106;7.028;2024-03-17T14:14:03;4.13;;;3.72;;
18336;SDS011;9294;51.106;7.028;2024-03-17T14:16:31;14.55;;;4.05;;
18336;SDS011;9294;51.106;7.028;2024-03-17T14:18:58;7.20;;;3.92;;
18336;SDS011;9294;51.106;7.028;2024-03-17T14:21:25;6.97;;;3.33;;
18336;SDS011;9294;51.106;7.028;2024-03-17T14:23:52;9.48;;;3.80;;
18336;SDS011;9294;51.106;7.028;2024-03-17T14:26:19;6.25;;;3.80;;
18336;SDS011;9294;51.106;7.028;2024-03-17T14:28:47;5.93;;;3.00;;
18336;SDS011;9294;51.106;7.028;2024-03-17T14:31:15;7.13;;;3.17;;
18336;SDS011;9294;51.106;7.028;2024-03-17T14:33:42;4.47;;;3.15;;
18336;SDS011;9294;51.106;7.028;2024-03-17T14:36:09;4.45;;;2.80;;
18336;SDS011;9294;51.106;7.028;2024-03-17T14:38:36;4.32;;;3.05;;
18336;SDS011;9294;51.106;7.028;2024-03-17T14:41:02;3.45;;;2.58;;
18336;SDS011;9294;51.106;7.028;2024-03-17T14:43:29;7.95;;;3.22;;
18336;SDS011;9294;51.106;7.028;2024-03-17T14:45:57;5.10;;;3.22;;
18336;SDS011;9294;51.106;7.028;2024-03-17T14:48:24;2.50;;;2.30;;
18336;SDS011;9294;51.106;7.028;2024-03-17T14:50:51;2.85;;;2.65;;
18336;SDS011;9294;51.106;7.028;2024-03-17T14:53:17;6.68;;;3.05;;
18336;SDS011;9294;51.106;7.028;2024-03-17T14:55:45;4.82;;;2.72;;
18336;SDS011;9294;51.106;7.028;2024-03-17T14:58:12;6.10;;;2.78;;
18336;SDS011;9294;51.106;7.028;2024-03-17T15:00:40;5.18;;;3.00;;
18336;SDS011;9294;51.106;7.028;2024-03-17T15:03:08;5.80;;;3.22;;
18336;SDS011;9294;51.106;7.028;2024-03-17T15:05:35;5.93;;;3.38;;